This is the latest recevied weather packets stored in our database for station/object RK6MF-10. If no packets are shown the sender has not sent any weather packets the latest 10 day(s).
| Time | Temp. | Humidity | Pressure | Rain* | Wind** | Luminosity | Snow |
|---|---|---|---|---|---|---|---|
| 1777492590 | 9.44° C | 100% | 1014.8 hPa | - | - | - | - |
| 1777491690 | 9.44° C | 100% | 1014.8 hPa | - | - | - | - |
| 1777490790 | 9.44° C | 100% | 1014.9 hPa | - | - | - | - |
| 1777489889 | 9.44° C | 100% | 1014.9 hPa | - | - | - | - |
| 1777488989 | 8.89° C | 100% | 1015 hPa | - | - | - | - |
| 1777488089 | 9.44° C | 100% | 1015.1 hPa | - | - | - | - |
| 1777487189 | 9.44° C | 100% | 1015.1 hPa | - | - | - | - |
| 1777486289 | 10° C | 91% | 1015.1 hPa | - | - | - | - |
| 1777485389 | 10° C | 84% | 1015.1 hPa | - | - | - | - |
| 1777484489 | 10.56° C | 81% | 1015 hPa | - | - | - | - |
| 1777483589 | 10° C | 88% | 1014.9 hPa | - | - | - | - |
| 1777482689 | 10° C | 91% | 1014.8 hPa | - | - | - | - |
| 1777481788 | 10.56° C | 89% | 1014.7 hPa | - | - | - | - |
| 1777480888 | 10.56° C | 80% | 1014.6 hPa | - | - | - | - |
| 1777479987 | 11.11° C | 73% | 1014.5 hPa | - | - | - | - |
| 1777479087 | 11.67° C | 67% | 1014.5 hPa | - | - | - | - |
| 1777477290 | 12.78° C | 59% | 1014.5 hPa | - | - | - | - |
| 1777476390 | 12.78° C | 68% | 1014.5 hPa | - | - | - | - |
| 1777475490 | 12.78° C | 64% | 1014.5 hPa | - | - | - | - |
| 1777474590 | 13.89° C | 58% | 1014.4 hPa | - | - | - | - |
| 1777473690 | 15° C | 55% | 1014.3 hPa | - | - | - | - |
| 1777472790 | 15.56° C | 52% | 1014.3 hPa | - | - | - | - |
| 1777471889 | 16.11° C | 49% | 1014.2 hPa | - | - | - | - |
| 1777470989 | 17.78° C | 44% | 1014.1 hPa | - | - | - | - |
| 1777470089 | 17.78° C | 43% | 1014.1 hPa | - | - | - | - |
* Rain since midnight (hover to see other rain measurements)
** Current wind speed in m/s (hover to see current wind gust speed)